sensor_id;sensor_type;location;lat;lon;timestamp;temperature;humidity
3713;DHT22;1872;51.406;6.856;2023-06-26T00:01:20;22.00;99.90
3713;DHT22;1872;51.406;6.856;2023-06-26T00:03:51;22.00;99.90
3713;DHT22;1872;51.406;6.856;2023-06-26T00:06:17;22.00;99.90
3713;DHT22;1872;51.406;6.856;2023-06-26T00:08:42;21.90;99.90
3713;DHT22;1872;51.406;6.856;2023-06-26T00:11:12;21.90;99.90
3713;DHT22;1872;51.406;6.856;2023-06-26T00:13:38;21.90;99.90
3713;DHT22;1872;51.406;6.856;2023-06-26T00:16:07;21.90;99.90
3713;DHT22;1872;51.406;6.856;2023-06-26T00:18:38;21.80;99.90
3713;DHT22;1872;51.406;6.856;2023-06-26T00:21:10;21.80;99.90
3713;DHT22;1872;51.406;6.856;2023-06-26T00:23:35;21.80;99.90
3713;DHT22;1872;51.406;6.856;2023-06-26T00:26:03;21.70;99.90
3713;DHT22;1872;51.406;6.856;2023-06-26T00:28:29;21.70;99.90
3713;DHT22;1872;51.406;6.856;2023-06-26T00:30:55;21.70;99.90
3713;DHT22;1872;51.406;6.856;2023-06-26T00:33:20;21.60;99.90
3713;DHT22;1872;51.406;6.856;2023-06-26T00:35:46;21.60;99.90
3713;DHT22;1872;51.406;6.856;2023-06-26T00:38:11;21.60;99.90
3713;DHT22;1872;51.406;6.856;2023-06-26T00:40:37;21.60;99.90
3713;DHT22;1872;51.406;6.856;2023-06-26T00:43:03;21.60;99.90
3713;DHT22;1872;51.406;6.856;2023-06-26T00:45:28;21.50;99.90
3713;DHT22;1872;51.406;6.856;2023-06-26T00:47:54;21.50;99.90
3713;DHT22;1872;51.406;6.856;2023-06-26T00:50:20;21.50;99.90
3713;DHT22;1872;51.406;6.856;2023-06-26T00:52:46;21.40;99.90
3713;DHT22;1872;51.406;6.856;2023-06-26T00:55:12;21.40;99.90
3713;DHT22;1872;51.406;6.856;2023-06-26T00:57:38;21.40;99.90
3713;DHT22;1872;51.406;6.856;2023-06-26T01:00:05;21.30;99.90
3713;DHT22;1872;51.406;6.856;2023-06-26T01:02:30;21.30;99.90
3713;DHT22;1872;51.406;6.856;2023-06-26T01:05:01;21.30;99.90
3713;DHT22;1872;51.406;6.856;2023-06-26T01:07:29;21.20;99.90
3713;DHT22;1872;51.406;6.856;2023-06-26T01:09:55;21.20;99.90
3713;DHT22;1872;51.406;6.856;2023-06-26T01:12:21;21.20;99.90
3713;DHT22;1872;51.406;6.856;2023-06-26T01:14:46;21.20;99.90
3713;DHT22;1872;51.406;6.856;2023-06-26T01:17:12;21.20;99.90
3713;DHT22;1872;51.406;6.856;2023-06-26T01:19:41;21.20;99.90
3713;DHT22;1872;51.406;6.856;2023-06-26T01:22:29;21.20;99.90
3713;DHT22;1872;51.406;6.856;2023-06-26T01:27:30;21.10;99.90
3713;DHT22;1872;51.406;6.856;2023-06-26T01:30:00;21.10;99.90
3713;DHT22;1872;51.406;6.856;2023-06-26T01:32:28;21.10;99.90
3713;DHT22;1872;51.406;6.856;2023-06-26T01:34:54;21.10;99.90
3713;DHT22;1872;51.406;6.856;2023-06-26T01:37:20;21.10;99.90
3713;DHT22;1872;51.406;6.856;2023-06-26T01:39:45;21.00;99.90
3713;DHT22;1872;51.406;6.856;2023-06-26T01:42:11;21.00;99.90
3713;DHT22;1872;51.406;6.856;2023-06-26T01:44:42;21.00;99.90
3713;DHT22;1872;51.406;6.856;2023-06-26T01:47:10;21.00;99.90
3713;DHT22;1872;51.406;6.856;2023-06-26T01:50:15;21.00;99.90
3713;DHT22;1872;51.406;6.856;2023-06-26T01:52:49;20.90;99.90
3713;DHT22;1872;51.406;6.856;2023-06-26T01:55:32;20.90;99.90
3713;DHT22;1872;51.406;6.856;2023-06-26T01:58:01;20.90;99.90
3713;DHT22;1872;51.406;6.856;2023-06-26T02:00:27;20.90;99.90
3713;DHT22;1872;51.406;6.856;2023-06-26T02:02:54;20.90;99.90
3713;DHT22;1872;51.406;6.856;2023-06-26T02:05:20;20.90;99.90
3713;DHT22;1872;51.406;6.856;2023-06-26T02:07:45;20.90;99.90
3713;DHT22;1872;51.406;6.856;2023-06-26T02:10:11;20.80;99.90
3713;DHT22;1872;51.406;6.856;2023-06-26T02:12:37;20.80;99.90
3713;DHT22;1872;51.406;6.856;2023-06-26T02:15:04;20.80;99.90
3713;DHT22;1872;51.406;6.856;2023-06-26T02:17:30;20.80;99.90
3713;DHT22;1872;51.406;6.856;2023-06-26T02:19:56;20.80;99.90
3713;DHT22;1872;51.406;6.856;2023-06-26T02:22:21;20.80;99.90
3713;DHT22;1872;51.406;6.856;2023-06-26T02:24:47;20.80;99.90
3713;DHT22;1872;51.406;6.856;2023-06-26T02:27:13;20.80;99.90
3713;DHT22;1872;51.406;6.856;2023-06-26T02:29:40;20.80;99.90
3713;DHT22;1872;51.406;6.856;2023-06-26T02:32:06;20.70;99.90
3713;DHT22;1872;51.406;6.856;2023-06-26T02:34:31;20.80;99.90
3713;DHT22;1872;51.406;6.856;2023-06-26T02:36:57;20.80;99.90
3713;DHT22;1872;51.406;6.856;2023-06-26T02:39:24;20.80;99.90
3713;DHT22;1872;51.406;6.856;2023-06-26T02:41:49;20.80;99.90
3713;DHT22;1872;51.406;6.856;2023-06-26T02:44:15;20.80;99.90
3713;DHT22;1872;51.406;6.856;2023-06-26T02:46:41;20.80;99.90
3713;DHT22;1872;51.406;6.856;2023-06-26T02:49:07;20.80;99.90
3713;DHT22;1872;51.406;6.856;2023-06-26T02:51:33;20.80;99.90
3713;DHT22;1872;51.406;6.856;2023-06-26T02:53:59;20.80;99.90
3713;DHT22;1872;51.406;6.856;2023-06-26T02:56:26;20.80;99.90
3713;DHT22;1872;51.406;6.856;2023-06-26T02:58:57;20.80;99.90
3713;DHT22;1872;51.406;6.856;2023-06-26T03:01:23;20.80;99.90
3713;DHT22;1872;51.406;6.856;2023-06-26T03:03:48;20.80;99.90
3713;DHT22;1872;51.406;6.856;2023-06-26T03:06:15;20.80;99.90
3713;DHT22;1872;51.406;6.856;2023-06-26T03:08:41;20.80;99.90
3713;DHT22;1872;51.406;6.856;2023-06-26T03:11:07;20.80;99.90
3713;DHT22;1872;51.406;6.856;2023-06-26T03:13:35;20.80;99.90
3713;DHT22;1872;51.406;6.856;2023-06-26T03:16:01;20.80;99.90
3713;DHT22;1872;51.406;6.856;2023-06-26T03:18:27;20.80;99.90
3713;DHT22;1872;51.406;6.856;2023-06-26T03:20:53;20.80;99.90
3713;DHT22;1872;51.406;6.856;2023-06-26T03:23:20;20.80;99.90
3713;DHT22;1872;51.406;6.856;2023-06-26T03:25:46;20.80;99.90
3713;DHT22;1872;51.406;6.856;2023-06-26T03:28:11;20.80;99.90
3713;DHT22;1872;51.406;6.856;2023-06-26T03:30:37;20.80;99.90
3713;DHT22;1872;51.406;6.856;2023-06-26T03:33:03;20.80;99.90
3713;DHT22;1872;51.406;6.856;2023-06-26T03:35:29;20.90;99.90
3713;DHT22;1872;51.406;6.856;2023-06-26T03:37:54;20.90;99.90
3713;DHT22;1872;51.406;6.856;2023-06-26T03:40:20;20.90;99.90
3713;DHT22;1872;51.406;6.856;2023-06-26T03:42:48;20.90;99.90
3713;DHT22;1872;51.406;6.856;2023-06-26T03:45:13;21.00;99.90
3713;DHT22;1872;51.406;6.856;2023-06-26T03:47:39;20.90;99.90
3713;DHT22;1872;51.406;6.856;2023-06-26T03:50:05;21.00;99.90
3713;DHT22;1872;51.406;6.856;2023-06-26T03:52:31;21.00;99.90
3713;DHT22;1872;51.406;6.856;2023-06-26T03:54:58;21.00;99.90
3713;DHT22;1872;51.406;6.856;2023-06-26T03:57:23;21.00;99.90
3713;DHT22;1872;51.406;6.856;2023-06-26T03:59:50;21.00;99.90
3713;DHT22;1872;51.406;6.856;2023-06-26T04:02:16;21.00;99.90
3713;DHT22;1872;51.406;6.856;2023-06-26T04:04:41;21.00;99.90
3713;DHT22;1872;51.406;6.856;2023-06-26T04:07:07;21.00;99.90
3713;DHT22;1872;51.406;6.856;2023-06-26T04:09:32;21.00;99.90
3713;DHT22;1872;51.406;6.856;2023-06-26T04:11:58;21.10;99.90
3713;DHT22;1872;51.406;6.856;2023-06-26T04:14:24;21.10;99.90
3713;DHT22;1872;51.406;6.856;2023-06-26T04:16:49;21.10;99.90
3713;DHT22;1872;51.406;6.856;2023-06-26T04:19:15;21.10;99.90
3713;DHT22;1872;51.406;6.856;2023-06-26T04:21:40;21.20;99.90
3713;DHT22;1872;51.406;6.856;2023-06-26T04:24:06;21.20;99.90
3713;DHT22;1872;51.406;6.856;2023-06-26T04:26:32;21.20;99.90
3713;DHT22;1872;51.406;6.856;2023-06-26T04:28:58;21.20;99.90
3713;DHT22;1872;51.406;6.856;2023-06-26T04:31:24;21.10;99.90
3713;DHT22;1872;51.406;6.856;2023-06-26T04:33:50;21.20;99.90
3713;DHT22;1872;51.406;6.856;2023-06-26T04:36:17;21.20;99.90
3713;DHT22;1872;51.406;6.856;2023-06-26T04:38:43;21.10;99.90
3713;DHT22;1872;51.406;6.856;2023-06-26T04:41:09;21.20;99.90
3713;DHT22;1872;51.406;6.856;2023-06-26T04:43:34;21.20;99.90
3713;DHT22;1872;51.406;6.856;2023-06-26T04:46:03;21.20;99.90
3713;DHT22;1872;51.406;6.856;2023-06-26T04:48:29;21.20;99.90
3713;DHT22;1872;51.406;6.856;2023-06-26T04:50:56;21.20;99.90
3713;DHT22;1872;51.406;6.856;2023-06-26T04:53:22;21.20;99.90
3713;DHT22;1872;51.406;6.856;2023-06-26T04:55:49;21.30;99.90
3713;DHT22;1872;51.406;6.856;2023-06-26T04:58:15;21.30;99.90
3713;DHT22;1872;51.406;6.856;2023-06-26T05:00:41;21.30;99.90
3713;DHT22;1872;51.406;6.856;2023-06-26T05:03:12;21.40;99.90
3713;DHT22;1872;51.406;6.856;2023-06-26T05:05:38;21.40;99.90
3713;DHT22;1872;51.406;6.856;2023-06-26T05:08:33;21.40;99.90
3713;DHT22;1872;51.406;6.856;2023-06-26T05:10:59;21.40;99.90
3713;DHT22;1872;51.406;6.856;2023-06-26T05:13:27;21.50;99.90
3713;DHT22;1872;51.406;6.856;2023-06-26T05:15:53;21.50;99.90
3713;DHT22;1872;51.406;6.856;2023-06-26T05:18:19;21.60;99.90
3713;DHT22;1872;51.406;6.856;2023-06-26T05:20:45;21.60;99.90
3713;DHT22;1872;51.406;6.856;2023-06-26T05:23:12;21.60;99.90
3713;DHT22;1872;51.406;6.856;2023-06-26T05:25:38;21.70;99.90
3713;DHT22;1872;51.406;6.856;2023-06-26T05:28:04;21.60;99.90
3713;DHT22;1872;51.406;6.856;2023-06-26T05:30:33;21.60;99.90
3713;DHT22;1872;51.406;6.856;2023-06-26T05:33:01;21.60;99.90
3713;DHT22;1872;51.406;6.856;2023-06-26T05:35:28;21.60;99.90
3713;DHT22;1872;51.406;6.856;2023-06-26T05:37:55;21.60;99.90
3713;DHT22;1872;51.406;6.856;2023-06-26T05:40:21;21.60;99.90
3713;DHT22;1872;51.406;6.856;2023-06-26T05:42:47;21.60;99.90
3713;DHT22;1872;51.406;6.856;2023-06-26T05:45:13;21.70;99.90
3713;DHT22;1872;51.406;6.856;2023-06-26T05:47:39;21.70;99.90
3713;DHT22;1872;51.406;6.856;2023-06-26T05:50:06;21.80;99.90
3713;DHT22;1872;51.406;6.856;2023-06-26T05:52:32;21.80;99.90
3713;DHT22;1872;51.406;6.856;2023-06-26T05:54:58;21.90;99.90
3713;DHT22;1872;51.406;6.856;2023-06-26T05:57:29;21.90;99.90
3713;DHT22;1872;51.406;6.856;2023-06-26T05:59:56;21.90;99.90
3713;DHT22;1872;51.406;6.856;2023-06-26T06:02:22;21.90;99.90
3713;DHT22;1872;51.406;6.856;2023-06-26T06:04:48;21.90;99.90
3713;DHT22;1872;51.406;6.856;2023-06-26T06:07:14;21.80;99.90
3713;DHT22;1872;51.406;6.856;2023-06-26T06:09:40;21.80;99.90
3713;DHT22;1872;51.406;6.856;2023-06-26T06:12:06;21.70;99.90
3713;DHT22;1872;51.406;6.856;2023-06-26T06:14:33;21.80;99.90
3713;DHT22;1872;51.406;6.856;2023-06-26T06:16:58;21.90;99.90
3713;DHT22;1872;51.406;6.856;2023-06-26T06:19:24;22.00;99.90
3713;DHT22;1872;51.406;6.856;2023-06-26T06:21:50;21.90;99.90
3713;DHT22;1872;51.406;6.856;2023-06-26T06:24:16;21.90;99.90
3713;DHT22;1872;51.406;6.856;2023-06-26T06:26:42;21.90;99.90
3713;DHT22;1872;51.406;6.856;2023-06-26T06:29:07;21.80;99.90
3713;DHT22;1872;51.406;6.856;2023-06-26T06:31:33;21.80;99.90
3713;DHT22;1872;51.406;6.856;2023-06-26T06:33:59;22.00;99.90
3713;DHT22;1872;51.406;6.856;2023-06-26T06:36:24;22.20;99.90
3713;DHT22;1872;51.406;6.856;2023-06-26T06:38:51;22.30;99.90
3713;DHT22;1872;51.406;6.856;2023-06-26T06:41:20;22.40;99.90
3713;DHT22;1872;51.406;6.856;2023-06-26T06:43:46;22.50;99.90
3713;DHT22;1872;51.406;6.856;2023-06-26T06:46:11;22.60;99.90
3713;DHT22;1872;51.406;6.856;2023-06-26T06:48:37;22.60;99.90
3713;DHT22;1872;51.406;6.856;2023-06-26T06:51:02;22.70;99.90
3713;DHT22;1872;51.406;6.856;2023-06-26T06:53:28;22.70;99.90
3713;DHT22;1872;51.406;6.856;2023-06-26T06:55:54;22.70;99.90
3713;DHT22;1872;51.406;6.856;2023-06-26T06:58:20;22.80;99.90
3713;DHT22;1872;51.406;6.856;2023-06-26T07:00:46;22.80;99.90
3713;DHT22;1872;51.406;6.856;2023-06-26T07:03:11;22.80;99.90
3713;DHT22;1872;51.406;6.856;2023-06-26T07:05:38;22.80;99.90
3713;DHT22;1872;51.406;6.856;2023-06-26T07:08:04;22.80;99.90
3713;DHT22;1872;51.406;6.856;2023-06-26T07:10:30;23.00;99.90
3713;DHT22;1872;51.406;6.856;2023-06-26T07:12:56;23.20;99.90
3713;DHT22;1872;51.406;6.856;2023-06-26T07:15:22;23.30;99.90
3713;DHT22;1872;51.406;6.856;2023-06-26T07:17:48;23.30;99.90
3713;DHT22;1872;51.406;6.856;2023-06-26T07:20:15;23.30;99.90
3713;DHT22;1872;51.406;6.856;2023-06-26T07:22:41;23.30;99.90
3713;DHT22;1872;51.406;6.856;2023-06-26T07:25:08;23.30;99.90
3713;DHT22;1872;51.406;6.856;2023-06-26T07:27:40;23.30;99.90
3713;DHT22;1872;51.406;6.856;2023-06-26T07:30:07;23.20;99.90
3713;DHT22;1872;51.406;6.856;2023-06-26T07:32:37;23.10;99.90
3713;DHT22;1872;51.406;6.856;2023-06-26T07:35:03;23.20;99.90
3713;DHT22;1872;51.406;6.856;2023-06-26T07:37:29;23.60;99.90
3713;DHT22;1872;51.406;6.856;2023-06-26T07:39:55;24.10;99.90
3713;DHT22;1872;51.406;6.856;2023-06-26T07:42:23;24.50;99.90
3713;DHT22;1872;51.406;6.856;2023-06-26T07:44:50;25.10;99.90
3713;DHT22;1872;51.406;6.856;2023-06-26T07:47:16;25.50;99.90
3713;DHT22;1872;51.406;6.856;2023-06-26T07:49:41;26.00;99.90
3713;DHT22;1872;51.406;6.856;2023-06-26T07:52:07;26.40;99.90
3713;DHT22;1872;51.406;6.856;2023-06-26T07:54:35;26.60;99.90
3713;DHT22;1872;51.406;6.856;2023-06-26T07:57:03;26.90;99.90
3713;DHT22;1872;51.406;6.856;2023-06-26T07:59:32;26.90;99.90
3713;DHT22;1872;51.406;6.856;2023-06-26T08:01:58;27.00;99.90
3713;DHT22;1872;51.406;6.856;2023-06-26T08:04:26;27.00;99.90
3713;DHT22;1872;51.406;6.856;2023-06-26T08:06:54;26.90;99.90
3713;DHT22;1872;51.406;6.856;2023-06-26T08:09:21;26.90;99.90
3713;DHT22;1872;51.406;6.856;2023-06-26T08:11:47;27.10;99.90
3713;DHT22;1872;51.406;6.856;2023-06-26T08:14:13;27.10;99.90
3713;DHT22;1872;51.406;6.856;2023-06-26T08:16:40;27.10;99.90
3713;DHT22;1872;51.406;6.856;2023-06-26T08:19:07;27.20;99.90
3713;DHT22;1872;51.406;6.856;2023-06-26T08:21:33;27.10;99.90
3713;DHT22;1872;51.406;6.856;2023-06-26T08:23:58;26.80;99.90
3713;DHT22;1872;51.406;6.856;2023-06-26T08:26:24;26.50;99.90
3713;DHT22;1872;51.406;6.856;2023-06-26T08:28:50;26.20;99.90
3713;DHT22;1872;51.406;6.856;2023-06-26T08:31:16;26.00;99.90
3713;DHT22;1872;51.406;6.856;2023-06-26T08:33:46;25.90;99.90
3713;DHT22;1872;51.406;6.856;2023-06-26T08:36:11;25.70;99.90
3713;DHT22;1872;51.406;6.856;2023-06-26T08:38:37;25.50;99.90
3713;DHT22;1872;51.406;6.856;2023-06-26T08:41:06;25.30;99.90
3713;DHT22;1872;51.406;6.856;2023-06-26T08:43:32;25.10;99.90
3713;DHT22;1872;51.406;6.856;2023-06-26T08:45:58;25.00;99.90
3713;DHT22;1872;51.406;6.856;2023-06-26T08:48:24;25.00;99.90
3713;DHT22;1872;51.406;6.856;2023-06-26T08:50:52;25.20;99.90
3713;DHT22;1872;51.406;6.856;2023-06-26T08:55:49;25.30;99.90
3713;DHT22;1872;51.406;6.856;2023-06-26T08:58:17;25.30;99.90
3713;DHT22;1872;51.406;6.856;2023-06-26T09:00:43;25.30;99.90
3713;DHT22;1872;51.406;6.856;2023-06-26T09:03:12;25.50;99.90
3713;DHT22;1872;51.406;6.856;2023-06-26T09:05:44;25.50;99.90
3713;DHT22;1872;51.406;6.856;2023-06-26T09:08:11;25.50;99.90
3713;DHT22;1872;51.406;6.856;2023-06-26T09:10:44;25.40;99.90
3713;DHT22;1872;51.406;6.856;2023-06-26T09:13:10;25.30;99.90
3713;DHT22;1872;51.406;6.856;2023-06-26T09:15:42;25.30;99.90
3713;DHT22;1872;51.406;6.856;2023-06-26T09:18:09;25.30;99.90
3713;DHT22;1872;51.406;6.856;2023-06-26T09:20:35;25.40;99.90
3713;DHT22;1872;51.406;6.856;2023-06-26T09:23:02;25.50;99.90
3713;DHT22;1872;51.406;6.856;2023-06-26T09:25:28;25.50;99.90
3713;DHT22;1872;51.406;6.856;2023-06-26T09:27:55;25.50;99.90
3713;DHT22;1872;51.406;6.856;2023-06-26T09:30:21;25.50;99.90
3713;DHT22;1872;51.406;6.856;2023-06-26T09:32:46;25.50;99.90
3713;DHT22;1872;51.406;6.856;2023-06-26T09:35:12;25.50;99.90
3713;DHT22;1872;51.406;6.856;2023-06-26T09:37:39;25.50;99.90
3713;DHT22;1872;51.406;6.856;2023-06-26T09:40:05;25.40;99.90
3713;DHT22;1872;51.406;6.856;2023-06-26T09:42:32;25.50;99.90
3713;DHT22;1872;51.406;6.856;2023-06-26T09:44:58;25.60;99.90
3713;DHT22;1872;51.406;6.856;2023-06-26T09:47:23;25.70;99.90
3713;DHT22;1872;51.406;6.856;2023-06-26T09:49:49;25.70;99.90
3713;DHT22;1872;51.406;6.856;2023-06-26T09:52:16;25.80;99.90
3713;DHT22;1872;51.406;6.856;2023-06-26T09:54:43;25.70;99.90
3713;DHT22;1872;51.406;6.856;2023-06-26T09:57:18;25.70;99.90
3713;DHT22;1872;51.406;6.856;2023-06-26T09:59:44;25.70;99.70
3713;DHT22;1872;51.406;6.856;2023-06-26T10:02:13;25.80;99.80
3713;DHT22;1872;51.406;6.856;2023-06-26T10:04:38;25.80;99.80
3713;DHT22;1872;51.406;6.856;2023-06-26T10:07:11;25.70;99.70
3713;DHT22;1872;51.406;6.856;2023-06-26T10:09:41;25.60;99.70
3713;DHT22;1872;51.406;6.856;2023-06-26T10:12:31;25.40;99.60
3713;DHT22;1872;51.406;6.856;2023-06-26T10:14:57;25.20;99.10
3713;DHT22;1872;51.406;6.856;2023-06-26T10:17:27;25.10;99.10
3713;DHT22;1872;51.406;6.856;2023-06-26T10:19:55;25.10;99.10
3713;DHT22;1872;51.406;6.856;2023-06-26T10:22:29;25.10;99.00
3713;DHT22;1872;51.406;6.856;2023-06-26T10:25:00;25.30;99.10
3713;DHT22;1872;51.406;6.856;2023-06-26T10:27:34;25.30;99.10
3713;DHT22;1872;51.406;6.856;2023-06-26T10:30:04;25.30;98.90
3713;DHT22;1872;51.406;6.856;2023-06-26T10:32:33;25.40;98.50
3713;DHT22;1872;51.406;6.856;2023-06-26T10:35:07;25.40;98.30
3713;DHT22;1872;51.406;6.856;2023-06-26T10:37:49;25.50;98.60
3713;DHT22;1872;51.406;6.856;2023-06-26T10:40:26;25.50;98.40
3713;DHT22;1872;51.406;6.856;2023-06-26T10:43:14;25.40;98.40
3713;DHT22;1872;51.406;6.856;2023-06-26T10:45:52;25.40;98.70
3713;DHT22;1872;51.406;6.856;2023-06-26T10:48:20;25.40;98.70
3713;DHT22;1872;51.406;6.856;2023-06-26T10:50:53;25.30;98.80
3713;DHT22;1872;51.406;6.856;2023-06-26T10:56:00;25.30;98.70
3713;DHT22;1872;51.406;6.856;2023-06-26T11:01:20;25.00;98.50
3713;DHT22;1872;51.406;6.856;2023-06-26T11:06:20;25.00;98.20
3713;DHT22;1872;51.406;6.856;2023-06-26T11:08:48;25.00;98.00
3713;DHT22;1872;51.406;6.856;2023-06-26T11:11:15;24.80;97.50
3713;DHT22;1872;51.406;6.856;2023-06-26T11:13:41;24.70;97.10
3713;DHT22;1872;51.406;6.856;2023-06-26T11:16:07;24.60;97.10
3713;DHT22;1872;51.406;6.856;2023-06-26T11:18:33;24.60;97.10
3713;DHT22;1872;51.406;6.856;2023-06-26T11:21:09;24.60;97.10
3713;DHT22;1872;51.406;6.856;2023-06-26T11:23:36;24.60;97.30
3713;DHT22;1872;51.406;6.856;2023-06-26T11:28:49;24.80;97.40
3713;DHT22;1872;51.406;6.856;2023-06-26T11:31:25;25.00;97.10
3713;DHT22;1872;51.406;6.856;2023-06-26T11:33:52;25.10;96.80
3713;DHT22;1872;51.406;6.856;2023-06-26T11:36:18;25.10;96.50
3713;DHT22;1872;51.406;6.856;2023-06-26T11:38:43;25.20;96.20
3713;DHT22;1872;51.406;6.856;2023-06-26T11:41:09;25.20;96.00
3713;DHT22;1872;51.406;6.856;2023-06-26T11:43:35;25.40;96.00
3713;DHT22;1872;51.406;6.856;2023-06-26T11:46:00;25.40;96.00
3713;DHT22;1872;51.406;6.856;2023-06-26T11:48:26;25.30;95.40
3713;DHT22;1872;51.406;6.856;2023-06-26T11:50:52;25.20;94.70
3713;DHT22;1872;51.406;6.856;2023-06-26T11:53:17;25.10;94.40
3713;DHT22;1872;51.406;6.856;2023-06-26T11:55:43;25.20;94.20
3713;DHT22;1872;51.406;6.856;2023-06-26T11:58:09;25.20;93.80
3713;DHT22;1872;51.406;6.856;2023-06-26T12:00:34;25.00;93.40
3713;DHT22;1872;51.406;6.856;2023-06-26T12:03:02;25.00;93.20
3713;DHT22;1872;51.406;6.856;2023-06-26T12:05:28;24.90;93.30
3713;DHT22;1872;51.406;6.856;2023-06-26T12:07:56;24.90;93.60
3713;DHT22;1872;51.406;6.856;2023-06-26T12:10:26;24.80;93.70
3713;DHT22;1872;51.406;6.856;2023-06-26T12:12:52;24.80;93.50
3713;DHT22;1872;51.406;6.856;2023-06-26T12:15:19;24.80;93.30
3713;DHT22;1872;51.406;6.856;2023-06-26T12:17:45;24.70;93.40
3713;DHT22;1872;51.406;6.856;2023-06-26T12:20:22;24.70;93.40
3713;DHT22;1872;51.406;6.856;2023-06-26T12:22:48;24.70;92.50
3713;DHT22;1872;51.406;6.856;2023-06-26T12:25:14;24.80;92.30
3713;DHT22;1872;51.406;6.856;2023-06-26T12:27:40;24.70;91.70
3713;DHT22;1872;51.406;6.856;2023-06-26T12:30:06;24.70;91.20
3713;DHT22;1872;51.406;6.856;2023-06-26T12:32:34;24.70;91.00
3713;DHT22;1872;51.406;6.856;2023-06-26T12:35:00;24.60;90.60
3713;DHT22;1872;51.406;6.856;2023-06-26T12:37:26;24.60;90.50
3713;DHT22;1872;51.406;6.856;2023-06-26T12:39:53;24.60;90.80
3713;DHT22;1872;51.406;6.856;2023-06-26T12:42:24;24.60;90.50
3713;DHT22;1872;51.406;6.856;2023-06-26T12:44:51;24.50;90.40
3713;DHT22;1872;51.406;6.856;2023-06-26T12:47:17;24.50;90.30
3713;DHT22;1872;51.406;6.856;2023-06-26T12:49:44;24.60;90.20
3713;DHT22;1872;51.406;6.856;2023-06-26T12:52:15;24.60;90.20
3713;DHT22;1872;51.406;6.856;2023-06-26T12:54:43;24.60;90.10
3713;DHT22;1872;51.406;6.856;2023-06-26T12:57:09;24.60;90.00
3713;DHT22;1872;51.406;6.856;2023-06-26T12:59:38;24.60;89.90
3713;DHT22;1872;51.406;6.856;2023-06-26T13:02:04;24.60;89.80
3713;DHT22;1872;51.406;6.856;2023-06-26T13:04:30;24.50;88.50
3713;DHT22;1872;51.406;6.856;2023-06-26T13:06:56;24.50;89.30
3713;DHT22;1872;51.406;6.856;2023-06-26T13:09:32;24.50;89.40
3713;DHT22;1872;51.406;6.856;2023-06-26T13:11:59;24.50;88.10
3713;DHT22;1872;51.406;6.856;2023-06-26T13:14:25;24.40;87.40
3713;DHT22;1872;51.406;6.856;2023-06-26T13:16:52;24.30;86.70
3713;DHT22;1872;51.406;6.856;2023-06-26T13:19:18;24.20;86.60
3713;DHT22;1872;51.406;6.856;2023-06-26T13:21:43;24.20;86.40
3713;DHT22;1872;51.406;6.856;2023-06-26T13:24:09;24.30;86.40
3713;DHT22;1872;51.406;6.856;2023-06-26T13:26:35;24.30;86.00
3713;DHT22;1872;51.406;6.856;2023-06-26T13:29:01;24.20;85.70
3713;DHT22;1872;51.406;6.856;2023-06-26T13:31:27;24.20;85.60
3713;DHT22;1872;51.406;6.856;2023-06-26T13:33:53;24.10;85.60
3713;DHT22;1872;51.406;6.856;2023-06-26T13:36:19;24.10;85.40
3713;DHT22;1872;51.406;6.856;2023-06-26T13:38:47;24.00;85.80
3713;DHT22;1872;51.406;6.856;2023-06-26T13:41:15;24.10;85.90
3713;DHT22;1872;51.406;6.856;2023-06-26T13:43:41;24.10;87.10
3713;DHT22;1872;51.406;6.856;2023-06-26T13:46:07;24.20;87.60
3713;DHT22;1872;51.406;6.856;2023-06-26T13:48:32;24.20;87.20
3713;DHT22;1872;51.406;6.856;2023-06-26T13:50:58;24.20;87.20
3713;DHT22;1872;51.406;6.856;2023-06-26T13:53:25;24.30;87.50
3713;DHT22;1872;51.406;6.856;2023-06-26T13:55:50;24.30;88.10
3713;DHT22;1872;51.406;6.856;2023-06-26T13:58:16;24.30;87.70
3713;DHT22;1872;51.406;6.856;2023-06-26T14:00:42;24.30;87.70
3713;DHT22;1872;51.406;6.856;2023-06-26T14:03:10;24.20;87.30
3713;DHT22;1872;51.406;6.856;2023-06-26T14:05:37;24.20;88.50
3713;DHT22;1872;51.406;6.856;2023-06-26T14:08:04;24.20;88.10
3713;DHT22;1872;51.406;6.856;2023-06-26T14:10:30;24.20;87.60
3713;DHT22;1872;51.406;6.856;2023-06-26T14:12:56;24.20;87.50
3713;DHT22;1872;51.406;6.856;2023-06-26T14:15:22;24.20;88.10
3713;DHT22;1872;51.406;6.856;2023-06-26T14:17:48;24.20;87.90
3713;DHT22;1872;51.406;6.856;2023-06-26T14:20:16;24.20;88.00
3713;DHT22;1872;51.406;6.856;2023-06-26T14:22:43;24.30;87.60
3713;DHT22;1872;51.406;6.856;2023-06-26T14:25:10;24.20;85.60
3713;DHT22;1872;51.406;6.856;2023-06-26T14:27:36;24.20;85.50
3713;DHT22;1872;51.406;6.856;2023-06-26T14:30:04;24.10;84.60
3713;DHT22;1872;51.406;6.856;2023-06-26T14:32:31;24.00;83.90
3713;DHT22;1872;51.406;6.856;2023-06-26T14:34:57;24.00;84.10
3713;DHT22;1872;51.406;6.856;2023-06-26T14:37:24;24.00;84.70
3713;DHT22;1872;51.406;6.856;2023-06-26T14:39:51;24.00;85.00
3713;DHT22;1872;51.406;6.856;2023-06-26T14:42:17;24.00;86.10
3713;DHT22;1872;51.406;6.856;2023-06-26T14:44:43;24.00;86.70
3713;DHT22;1872;51.406;6.856;2023-06-26T14:47:08;24.00;85.60
3713;DHT22;1872;51.406;6.856;2023-06-26T14:49:34;24.00;84.90
3713;DHT22;1872;51.406;6.856;2023-06-26T14:52:00;24.00;84.90
3713;DHT22;1872;51.406;6.856;2023-06-26T14:54:26;24.00;85.20
3713;DHT22;1872;51.406;6.856;2023-06-26T14:56:51;24.00;84.30
3713;DHT22;1872;51.406;6.856;2023-06-26T14:59:17;24.00;83.20
3713;DHT22;1872;51.406;6.856;2023-06-26T15:01:43;23.90;82.60
3713;DHT22;1872;51.406;6.856;2023-06-26T15:04:08;23.90;83.90
3713;DHT22;1872;51.406;6.856;2023-06-26T15:06:35;23.90;83.80
3713;DHT22;1872;51.406;6.856;2023-06-26T15:09:01;23.90;84.10
3713;DHT22;1872;51.406;6.856;2023-06-26T15:11:32;24.00;83.30
3713;DHT22;1872;51.406;6.856;2023-06-26T15:13:59;24.00;81.60
3713;DHT22;1872;51.406;6.856;2023-06-26T15:16:26;23.90;80.90
3713;DHT22;1872;51.406;6.856;2023-06-26T15:18:51;23.80;81.10
3713;DHT22;1872;51.406;6.856;2023-06-26T15:21:17;23.80;81.50
3713;DHT22;1872;51.406;6.856;2023-06-26T15:23:43;23.80;81.80
3713;DHT22;1872;51.406;6.856;2023-06-26T15:26:09;23.70;82.30
3713;DHT22;1872;51.406;6.856;2023-06-26T15:29:00;23.60;83.20
3713;DHT22;1872;51.406;6.856;2023-06-26T15:31:29;23.60;84.40
3713;DHT22;1872;51.406;6.856;2023-06-26T15:33:56;23.70;85.50
3713;DHT22;1872;51.406;6.856;2023-06-26T15:36:21;23.70;85.50
3713;DHT22;1872;51.406;6.856;2023-06-26T15:38:47;23.70;84.80
3713;DHT22;1872;51.406;6.856;2023-06-26T15:41:13;23.70;84.00
3713;DHT22;1872;51.406;6.856;2023-06-26T15:43:38;23.70;84.30
3713;DHT22;1872;51.406;6.856;2023-06-26T15:46:04;23.70;83.90
3713;DHT22;1872;51.406;6.856;2023-06-26T15:48:31;23.60;83.30
3713;DHT22;1872;51.406;6.856;2023-06-26T15:50:58;23.60;82.80
3713;DHT22;1872;51.406;6.856;2023-06-26T15:53:37;23.60;82.70
3713;DHT22;1872;51.406;6.856;2023-06-26T15:56:10;23.60;82.30
3713;DHT22;1872;51.406;6.856;2023-06-26T15:58:37;23.60;82.00
3713;DHT22;1872;51.406;6.856;2023-06-26T16:01:12;23.50;81.80
3713;DHT22;1872;51.406;6.856;2023-06-26T16:03:41;23.40;81.90
3713;DHT22;1872;51.406;6.856;2023-06-26T16:06:08;23.40;82.20
3713;DHT22;1872;51.406;6.856;2023-06-26T16:08:34;23.40;82.30
3713;DHT22;1872;51.406;6.856;2023-06-26T16:11:01;23.40;82.50
3713;DHT22;1872;51.406;6.856;2023-06-26T16:13:27;23.30;82.30
3713;DHT22;1872;51.406;6.856;2023-06-26T16:15:54;23.30;82.10
3713;DHT22;1872;51.406;6.856;2023-06-26T16:18:20;23.30;82.20